SAZS Airport Information

Runway Information
Runway 11 Length 7703 ft width 157 ft
Elevation 2749 ft Threshold 0 ft Heading 115
Runway 29 Length 7703 ft Width 157 ft
Elevation 2772 ft Threshold 0 ft Heading 295
Airport Frequencies
Type ATIS Name ATIS Frequency 127.9 MHZ
Type RDO Name BARILOCHE Frequency 122.3 MHZ
Type TWR Name BARILOCHE Frequency 119.1 MHZ
Airport Navaids
Type VOR-DME Name San Carlos De Bariloche Frequency 117400 KHZ
Airport Weather Information & NOTAM
ADDS - METARS form results

(0116 UTC 26 February 2018)
 
METAR text: SAZS 260100Z 29013KT 9999 SCT100 SCT200 19/10 Q1017
Conditions at: SAZS (SAN CARLOS BARIL, AR) observed 0100 UTC 26 February 2018
Temperature: 19.0°C (66°F)
Dewpoint: 10.0°C (50°F) [RH = 56%]
Pressure (altimeter): 30.03 inches Hg (1017.0 mb)
Winds: from the WNW (290 degrees) at 15 MPH (13 knots; 6.8 m/s)
Visibility: 6 or more miles (10+ km)
Ceiling: at least 12,000 feet AGL
Clouds: scattered clouds at 10000 feet AGL
scattered clouds at 20000 feet AGL
Weather: no significant weather observed at this time